createdAt,value
2022-08-10T00:00:28.035Z,100696.09
2022-08-10T00:01:34.544Z,100690.13
2022-08-10T00:02:37.147Z,100684.06
2022-08-10T00:03:43.351Z,100684.19
2022-08-10T00:04:45.516Z,100684.22
2022-08-10T00:05:52.836Z,100677.75
2022-08-10T00:06:56.028Z,100675.81
2022-08-10T00:07:58.262Z,100685.81
2022-08-10T00:09:00.531Z,100675.03
2022-08-10T00:10:03.728Z,100684.22
2022-08-10T00:11:15.389Z,100683.38
2022-08-10T00:12:20.079Z,100678.59
2022-08-10T00:13:24.244Z,100677.00
2022-08-10T00:14:26.766Z,100674.56
2022-08-10T00:15:52.283Z,100686.19
2022-08-10T00:16:53.204Z,100678.19
2022-08-10T00:17:58.023Z,100682.19
2022-08-10T00:19:00.207Z,100674.66
2022-08-10T00:20:08.507Z,100678.63
2022-08-10T00:21:11.242Z,100686.56
2022-08-10T00:22:16.905Z,100686.56
2022-08-10T00:23:26.896Z,100677.00
2022-08-10T00:24:33.052Z,100681.38
2022-08-10T00:25:35.067Z,100679.38
2022-08-10T00:28:01.227Z,100682.94
2022-08-10T00:28:04.056Z,100686.56
2022-08-10T00:29:13.107Z,100684.94
2022-08-10T00:30:15.235Z,100673.31
2022-08-10T00:31:20.275Z,100677.28
2022-08-10T00:32:22.954Z,100672.94
2022-08-10T00:33:25.419Z,100676.13
2022-08-10T00:34:32.331Z,100677.72
2022-08-10T00:35:35.905Z,100675.34
2022-08-10T00:36:38.655Z,100672.53
2022-08-10T00:37:40.820Z,100672.56
2022-08-10T00:38:43.026Z,100680.16
2022-08-10T00:39:48.895Z,100672.16
2022-08-10T00:40:51.120Z,100676.16
2022-08-10T00:42:01.975Z,100680.97
2022-08-10T00:43:23.396Z,100680.56
2022-08-10T00:44:28.819Z,100676.16
2022-08-10T00:45:31.196Z,100683.38
2022-08-10T00:46:33.781Z,100679.41
2022-08-10T00:47:39.852Z,100678.19
2022-08-10T00:48:42.387Z,100679.78
2022-08-10T00:49:44.758Z,100686.91
2022-08-10T00:50:57.347Z,100686.56
2022-08-10T00:52:06.123Z,100683.38
2022-08-10T00:53:08.705Z,100687.38
2022-08-10T00:54:23.899Z,100690.56
2022-08-10T00:55:28.744Z,100686.59
2022-08-10T00:57:14.669Z,100685.34
2022-08-10T00:57:57.050Z,100682.56
2022-08-10T00:58:59.232Z,100677.78
2022-08-10T01:00:09.662Z,100678.19
2022-08-10T01:02:08.498Z,100672.56
2022-08-10T01:02:34.789Z,100674.47
2022-08-10T01:04:39.652Z,100677.25
2022-08-10T01:05:08.835Z,100670.88
2022-08-10T01:06:29.666Z,100671.22
2022-08-10T01:07:34.470Z,100674.44
2022-08-10T01:08:53.033Z,100677.59
2022-08-10T01:10:13.280Z,100673.59
2022-08-10T01:12:28.590Z,100677.63
2022-08-10T01:12:57.586Z,100672.81
2022-08-10T01:14:06.858Z,100669.66
2022-08-10T01:15:29.073Z,100665.63
2022-08-10T01:16:53.666Z,100667.22
2022-08-10T01:18:17.472Z,100667.28
2022-08-10T01:19:41.552Z,100671.28
2022-08-10T01:20:57.664Z,100668.94
2022-08-10T01:22:24.838Z,100667.72
2022-08-10T01:23:53.606Z,100668.16
2022-08-10T01:25:20.232Z,100671.38
2022-08-10T01:26:43.069Z,100664.97
2022-08-10T01:28:00.530Z,100662.59
2022-08-10T01:29:34.067Z,100672.19
2022-08-10T01:30:38.597Z,100663.38
2022-08-10T01:31:45.634Z,100666.59
2022-08-10T01:33:31.741Z,100667.72
2022-08-10T01:34:53.736Z,100664.53
2022-08-10T01:36:04.058Z,100663.38
2022-08-10T01:37:12.195Z,100669.00
2022-08-10T01:38:18.389Z,100667.78
2022-08-10T01:39:31.351Z,100664.97
2022-08-10T01:40:39.579Z,100667.72
2022-08-10T01:41:46.418Z,100660.59
2022-08-10T01:42:55.248Z,100676.19
2022-08-10T01:44:13.399Z,100673.75
2022-08-10T01:45:20.919Z,100668.88
2022-08-10T01:46:28.221Z,100676.47
2022-08-10T01:48:16.613Z,100687.66
2022-08-10T01:49:22.531Z,100678.41
2022-08-10T01:50:53.268Z,100675.28
2022-08-10T01:52:06.991Z,100681.16
2022-08-10T01:53:16.196Z,100673.59
2022-08-10T01:54:24.614Z,100681.22
2022-08-10T01:55:29.311Z,100679.22
2022-08-10T01:56:35.153Z,100692.41
2022-08-10T01:57:40.405Z,100687.59
2022-08-10T01:58:46.667Z,100689.50
2022-08-10T01:59:58.596Z,100685.38
2022-08-10T02:01:11.133Z,100683.78
2022-08-10T02:02:21.698Z,100683.81
2022-08-10T02:03:27.142Z,100683.03
2022-08-10T02:04:31.687Z,100690.25
2022-08-10T02:05:37.484Z,100686.25
2022-08-10T02:06:44.512Z,100685.50
2022-08-10T02:07:49.493Z,100681.53
2022-08-10T02:08:57.101Z,100685.50
2022-08-10T02:10:13.567Z,100684.59
2022-08-10T02:11:19.420Z,100685.34
2022-08-10T02:12:43.693Z,100673.38
2022-08-10T02:13:48.339Z,100688.34
2022-08-10T02:15:02.354Z,100687.13
2022-08-10T02:16:07.116Z,100690.31
2022-08-10T02:17:57.081Z,100690.28
2022-08-10T02:18:40.641Z,100696.63
2022-08-10T02:19:46.988Z,100684.22
2022-08-10T02:20:51.676Z,100688.75
2022-08-10T02:22:35.296Z,100696.66
2022-08-10T02:23:27.960Z,100696.63
2022-08-10T02:24:30.670Z,100695.31
2022-08-10T02:25:42.360Z,100699.81
2022-08-10T02:26:47.033Z,100696.88
2022-08-10T02:27:51.423Z,100698.22
2022-08-10T02:28:54.910Z,100695.00
2022-08-10T02:29:59.274Z,100700.13
2022-08-10T02:31:12.005Z,100699.22
2022-08-10T02:32:20.130Z,100696.63
2022-08-10T02:33:56.230Z,100692.22
2022-08-10T02:35:01.485Z,100687.59
2022-08-10T02:36:08.912Z,100697.53
2022-08-10T02:37:13.839Z,100700.88
2022-08-10T02:38:58.526Z,100683.59
2022-08-10T02:39:50.884Z,100688.47
2022-08-10T02:45:01.109Z,100695.81
2022-08-10T02:45:19.339Z,100706.09
2022-08-10T02:45:29.565Z,100690.50
2022-08-10T02:46:09.898Z,100708.91
2022-08-10T02:47:51.567Z,100698.06
2022-08-10T02:49:03.549Z,100700.41
2022-08-10T02:50:08.912Z,100693.22
2022-08-10T02:52:06.639Z,100692.00
2022-08-10T02:52:56.617Z,100688.38
2022-08-10T02:54:08.666Z,100694.78
2022-08-10T02:55:32.375Z,100683.59
2022-08-10T02:56:49.758Z,100692.78
2022-08-10T02:58:16.615Z,100695.53
2022-08-10T02:59:39.645Z,100693.72
2022-08-10T03:00:46.795Z,100688.41
2022-08-10T03:01:54.567Z,100689.38
2022-08-10T03:03:01.057Z,100698.38
2022-08-10T03:04:11.975Z,100695.59
2022-08-10T03:05:19.526Z,100696.53
2022-08-10T03:06:25.756Z,100692.41
2022-08-10T03:07:43.376Z,100696.75
2022-08-10T03:08:50.003Z,100695.13
2022-08-10T03:09:53.587Z,100697.97
2022-08-10T03:10:58.710Z,100689.56
2022-08-10T03:12:36.039Z,100689.13
2022-08-10T03:13:28.800Z,100681.06
2022-08-10T03:14:32.642Z,100688.13
2022-08-10T03:15:37.978Z,100684.66
2022-08-10T03:16:42.355Z,100686.25
2022-08-10T03:17:57.206Z,100684.09
2022-08-10T03:19:04.915Z,100687.44
2022-08-10T03:20:34.627Z,100691.88
2022-08-10T03:21:31.240Z,100685.03
2022-08-10T03:22:35.173Z,100694.91
2022-08-10T03:23:40.757Z,100693.72
2022-08-10T03:24:45.150Z,100688.94
2022-08-10T03:25:54.403Z,100687.44
2022-08-10T03:26:57.966Z,100693.00
2022-08-10T03:28:01.313Z,100689.13
2022-08-10T03:29:05.085Z,100689.56
2022-08-10T03:30:25.756Z,100689.44
2022-08-10T03:31:31.587Z,100683.81
2022-08-10T03:32:35.060Z,100688.66
2022-08-10T03:33:39.692Z,100695.03
2022-08-10T03:34:42.719Z,100692.56
2022-08-10T03:36:40.479Z,100683.91
2022-08-10T03:37:07.611Z,100683.94
2022-08-10T03:38:12.652Z,100685.16
2022-08-10T03:39:15.308Z,100687.06
2022-08-10T03:40:17.610Z,100679.16
2022-08-10T03:41:27.236Z,100679.28
2022-08-10T03:42:34.923Z,100681.69
2022-08-10T03:43:41.268Z,100687.59
2022-08-10T03:44:49.867Z,100687.25
2022-08-10T03:46:00.155Z,100692.47
2022-08-10T03:47:16.194Z,100697.69
2022-08-10T03:48:21.046Z,100702.31
2022-08-10T03:49:27.223Z,100700.84
2022-08-10T03:50:50.968Z,100698.47
2022-08-10T03:51:56.472Z,100704.06
2022-08-10T03:53:00.478Z,100701.03
2022-08-10T03:54:07.269Z,100690.69
2022-08-10T03:55:11.526Z,100699.66
2022-08-10T03:56:36.252Z,100687.31
2022-08-10T03:57:49.375Z,100694.69
2022-08-10T03:58:51.997Z,100697.34
2022-08-10T03:59:54.132Z,100686.25
2022-08-10T04:00:57.688Z,100688.56
2022-08-10T04:02:44.010Z,100684.47
2022-08-10T04:03:23.373Z,100686.69
2022-08-10T04:04:31.345Z,100688.94
2022-08-10T04:05:38.060Z,100691.03
2022-08-10T04:06:40.963Z,100689.31
2022-08-10T04:07:44.622Z,100689.94
2022-08-10T04:08:48.044Z,100695.41
2022-08-10T04:09:55.150Z,100696.22
2022-08-10T04:10:58.645Z,100690.59
2022-08-10T04:12:01.161Z,100683.28
2022-08-10T04:13:03.575Z,100684.25
2022-08-10T04:14:06.512Z,100685.28
2022-08-10T04:15:09.085Z,100682.63
2022-08-10T04:16:11.192Z,100677.94
2022-08-10T04:17:18.317Z,100680.34
2022-08-10T04:18:40.155Z,100685.09
2022-08-10T04:19:50.252Z,100682.41
2022-08-10T04:21:05.030Z,100684.63
2022-08-10T04:22:21.170Z,100685.22
2022-08-10T04:23:30.972Z,100693.56
2022-08-10T04:24:36.737Z,100677.94
2022-08-10T04:25:40.210Z,100689.41
2022-08-10T04:26:42.684Z,100700.38
2022-08-10T04:27:48.490Z,100691.84
2022-08-10T04:28:50.718Z,100696.88
2022-08-10T04:29:55.617Z,100696.75
2022-08-10T04:30:59.121Z,100698.81
2022-08-10T04:32:03.671Z,100697.69
2022-08-10T04:33:08.285Z,100705.25
2022-08-10T04:34:11.488Z,100695.47
2022-08-10T04:35:16.905Z,100698.03
2022-08-10T04:36:22.253Z,100701.06
2022-08-10T04:37:25.929Z,100708.25
2022-08-10T04:38:32.173Z,100700.53
2022-08-10T04:39:34.394Z,100711.97
2022-08-10T04:40:37.971Z,100711.00
2022-08-10T04:41:46.193Z,100709.31
2022-08-10T04:42:50.263Z,100710.44
2022-08-10T04:43:52.357Z,100713.25
2022-08-10T04:44:55.433Z,100710.81
2022-08-10T04:45:57.835Z,100705.22
2022-08-10T04:47:00.956Z,100715.22
2022-08-10T04:48:03.633Z,100711.13
2022-08-10T04:49:55.191Z,100708.38
2022-08-10T04:50:31.032Z,100720.22
2022-08-10T04:51:33.058Z,100715.22
2022-08-10T04:52:37.438Z,100707.03
2022-08-10T04:54:05.905Z,100714.50
2022-08-10T04:55:04.424Z,100703.94
2022-08-10T04:56:08.869Z,100704.81
2022-08-10T04:57:10.983Z,100709.38
2022-08-10T04:58:14.558Z,100704.28
2022-08-10T04:59:20.288Z,100702.47
2022-08-10T05:00:22.435Z,100707.50
2022-08-10T05:01:26.715Z,100710.19
2022-08-10T05:02:32.180Z,100717.84
2022-08-10T05:03:34.480Z,100707.25
2022-08-10T05:04:56.963Z,100718.44
2022-08-10T05:05:58.999Z,100720.53
2022-08-10T05:07:03.747Z,100716.59
2022-08-10T05:08:05.988Z,100717.50
2022-08-10T05:09:08.612Z,100708.94
2022-08-10T05:10:14.992Z,100709.91
2022-08-10T05:11:24.124Z,100714.50
2022-08-10T05:12:26.745Z,100702.28
2022-08-10T05:13:29.771Z,100701.44
2022-08-10T05:14:32.166Z,100706.94
2022-08-10T05:15:34.639Z,100701.34
2022-08-10T05:16:36.688Z,100707.41
2022-08-10T05:17:41.298Z,100701.84
2022-08-10T05:19:03.523Z,100697.09
2022-08-10T05:20:09.979Z,100691.63
2022-08-10T05:22:01.401Z,100686.94
2022-08-10T05:22:37.731Z,100693.03
2022-08-10T05:23:40.193Z,100692.66
2022-08-10T05:24:43.064Z,100689.78
2022-08-10T05:25:45.457Z,100686.63
2022-08-10T05:27:00.343Z,100681.66
2022-08-10T05:28:10.212Z,100679.16
2022-08-10T05:29:17.859Z,100682.63
2022-08-10T05:30:23.146Z,100691.69
2022-08-10T05:33:01.625Z,100686.75
2022-08-10T05:34:20.667Z,100684.03
2022-08-10T05:35:24.051Z,100685.84
2022-08-10T05:36:27.133Z,100675.06
2022-08-10T05:38:09.420Z,100675.75
2022-08-10T05:38:54.478Z,100681.75
2022-08-10T05:39:57.429Z,100685.00
2022-08-10T05:41:00.335Z,100682.97
2022-08-10T05:42:03.347Z,100687.88
2022-08-10T05:43:06.131Z,100687.34
2022-08-10T05:44:09.210Z,100685.31
2022-08-10T05:46:16.705Z,100684.03
2022-08-10T05:47:00.307Z,100680.50
2022-08-10T05:48:56.086Z,100687.88
2022-08-10T05:49:25.971Z,100683.91
2022-08-10T05:50:31.353Z,100686.28
2022-08-10T05:51:33.729Z,100680.13
2022-08-10T05:52:36.159Z,100678.84
2022-08-10T05:54:01.258Z,100682.47
2022-08-10T05:55:03.022Z,100683.00
2022-08-10T05:56:07.282Z,100686.78
2022-08-10T05:57:10.520Z,100680.94
2022-08-10T05:58:14.063Z,100682.75
2022-08-10T06:00:33.082Z,100685.28
2022-08-10T06:00:48.410Z,100695.78
2022-08-10T06:02:34.042Z,100693.06
2022-08-10T06:03:18.833Z,100694.31
2022-08-10T06:04:31.303Z,100699.94
2022-08-10T06:05:37.292Z,100696.53
2022-08-10T06:06:41.113Z,100705.84
2022-08-10T06:07:48.885Z,100702.44
2022-08-10T06:08:53.672Z,100708.88
2022-08-10T06:10:00.289Z,100709.28
2022-08-10T06:12:23.614Z,100711.38
2022-08-10T06:12:30.909Z,100709.88
2022-08-10T06:14:00.072Z,100711.69
2022-08-10T06:15:21.693Z,100713.88
2022-08-10T06:16:25.277Z,100708.81
2022-08-10T06:17:30.728Z,100714.03
2022-08-10T06:18:33.653Z,100709.31
2022-08-10T06:19:36.241Z,100714.59
2022-08-10T06:20:38.810Z,100719.00
2022-08-10T06:21:41.287Z,100711.38
2022-08-10T06:23:04.323Z,100713.66
2022-08-10T06:24:11.682Z,100723.16
2022-08-10T06:26:08.365Z,100726.28
2022-08-10T06:26:38.068Z,100724.06
2022-08-10T06:27:40.696Z,100737.72
2022-08-10T06:28:58.227Z,100724.47
2022-08-10T06:30:20.127Z,100725.63
2022-08-10T06:31:26.708Z,100734.47
2022-08-10T06:32:30.108Z,100724.00
2022-08-10T06:33:35.475Z,100730.13
2022-08-10T06:34:45.676Z,100734.56
2022-08-10T06:35:52.320Z,100741.25
2022-08-10T06:36:57.690Z,100737.41
2022-08-10T06:38:05.087Z,100745.34
2022-08-10T06:39:31.801Z,100747.66
2022-08-10T06:40:38.326Z,100747.25
2022-08-10T06:42:01.434Z,100749.56
2022-08-10T06:43:19.027Z,100745.13
2022-08-10T06:44:33.865Z,100750.72
2022-08-10T06:45:43.197Z,100758.28
2022-08-10T06:46:49.939Z,100759.94
2022-08-10T06:47:55.908Z,100759.25
2022-08-10T06:49:02.093Z,100757.50
2022-08-10T06:50:12.906Z,100753.69
2022-08-10T06:51:21.839Z,100753.91
2022-08-10T06:52:24.582Z,100755.34
2022-08-10T06:53:52.836Z,100759.97
2022-08-10T06:54:59.294Z,100758.47
2022-08-10T06:56:07.715Z,100759.53
2022-08-10T06:57:18.724Z,100759.00
2022-08-10T06:58:23.765Z,100760.19
2022-08-10T06:59:44.771Z,100749.47
2022-08-10T07:00:47.733Z,100757.69
2022-08-10T07:02:01.308Z,100758.16
2022-08-10T07:03:11.636Z,100752.88
2022-08-10T07:04:38.823Z,100752.41
2022-08-10T07:05:51.289Z,100755.94
2022-08-10T07:06:55.373Z,100761.19
2022-08-10T07:08:01.180Z,100761.25
2022-08-10T07:09:05.174Z,100759.81
2022-08-10T07:10:09.697Z,100756.22
2022-08-10T07:11:13.379Z,100761.38
2022-08-10T07:12:17.799Z,100756.16
2022-08-10T07:14:16.246Z,100754.59
2022-08-10T07:14:46.683Z,100751.72
2022-08-10T07:15:57.278Z,100755.56
2022-08-10T07:17:04.302Z,100756.25
2022-08-10T07:18:07.871Z,100755.22
2022-08-10T07:19:11.102Z,100743.50
2022-08-10T07:20:18.965Z,100746.91
2022-08-10T07:21:22.897Z,100751.06
2022-08-10T07:23:01.255Z,100746.59
2022-08-10T07:23:58.665Z,100751.22
2022-08-10T07:25:05.913Z,100745.72
2022-08-10T07:26:10.370Z,100747.03
2022-08-10T07:27:13.660Z,100743.47
2022-08-10T07:28:18.375Z,100745.94
2022-08-10T07:29:26.780Z,100745.19
2022-08-10T07:30:46.139Z,100744.84
2022-08-10T07:31:57.119Z,100744.34
2022-08-10T07:33:02.878Z,100745.44
2022-08-10T07:34:08.794Z,100757.25
2022-08-10T07:35:17.635Z,100750.97
2022-08-10T07:36:23.380Z,100748.22
2022-08-10T07:37:30.244Z,100753.59
2022-08-10T07:38:35.378Z,100758.97
2022-08-10T07:40:02.799Z,100755.38
2022-08-10T07:41:06.682Z,100753.47
2022-08-10T07:42:11.667Z,100752.91
2022-08-10T07:43:18.727Z,100753.94
2022-08-10T07:44:26.775Z,100752.88
2022-08-10T07:45:32.075Z,100751.03
2022-08-10T07:46:38.615Z,100756.75
2022-08-10T07:47:53.116Z,100757.69
2022-08-10T07:49:03.255Z,100751.22
2022-08-10T07:50:24.706Z,100748.47
2022-08-10T07:51:28.520Z,100752.91
2022-08-10T07:52:34.699Z,100755.69
2022-08-10T07:53:43.338Z,100751.22
2022-08-10T07:54:50.442Z,100747.53
2022-08-10T07:56:04.052Z,100752.28
2022-08-10T07:57:31.926Z,100748.91
2022-08-10T07:58:46.106Z,100752.81
2022-08-10T08:00:01.185Z,100753.28
2022-08-10T08:01:16.705Z,100749.91
2022-08-10T08:02:39.999Z,100742.50
2022-08-10T08:03:44.653Z,100756.22
2022-08-10T08:05:10.071Z,100748.78
2022-08-10T08:06:13.573Z,100746.81
2022-08-10T08:07:21.258Z,100739.53
2022-08-10T08:08:25.707Z,100744.09
2022-08-10T08:09:32.705Z,100743.63
2022-08-10T08:10:36.294Z,100745.34
2022-08-10T08:11:44.840Z,100752.25
2022-08-10T08:12:51.756Z,100736.50
2022-08-10T08:13:55.614Z,100747.59
2022-08-10T08:15:02.754Z,100736.16
2022-08-10T08:16:25.513Z,100729.63
2022-08-10T08:17:36.477Z,100733.31
2022-08-10T08:18:42.580Z,100737.25
2022-08-10T08:20:02.720Z,100732.97
2022-08-10T08:21:13.659Z,100736.72
2022-08-10T08:24:09.317Z,100747.91
2022-08-10T08:24:31.530Z,100740.34
2022-08-10T08:25:17.497Z,100740.34
2022-08-10T08:26:23.006Z,100737.78
2022-08-10T08:27:27.583Z,100746.59
2022-08-10T08:28:34.523Z,100744.16
2022-08-10T08:29:41.777Z,100730.06
2022-08-10T08:30:48.904Z,100732.28
2022-08-10T08:32:01.335Z,100747.22
2022-08-10T08:33:05.104Z,100739.84
2022-08-10T08:34:08.939Z,100734.09
2022-08-10T08:35:15.580Z,100739.63
2022-08-10T08:36:20.015Z,100737.63
2022-08-10T08:38:29.733Z,100736.63
2022-08-10T08:38:47.813Z,100736.16
2022-08-10T08:39:50.062Z,100736.22
2022-08-10T08:41:11.839Z,100727.88
2022-08-10T08:42:28.128Z,100725.88
2022-08-10T08:43:54.993Z,100727.47
2022-08-10T08:45:23.433Z,100718.16
2022-08-10T08:46:59.249Z,100728.78
2022-08-10T08:48:19.936Z,100714.09
2022-08-10T08:50:05.060Z,100724.69
2022-08-10T08:52:07.103Z,100720.31
2022-08-10T08:54:02.122Z,100718.50
2022-08-10T08:56:04.704Z,100714.84
2022-08-10T08:57:50.294Z,100712.63
2022-08-10T08:58:51.005Z,100715.97
2022-08-10T09:00:06.224Z,100717.69
2022-08-10T09:01:40.363Z,100719.69
2022-08-10T09:03:03.443Z,100725.63
2022-08-10T09:04:44.848Z,100724.03
2022-08-10T09:06:04.620Z,100727.03
2022-08-10T09:07:39.319Z,100727.66
2022-08-10T09:09:35.510Z,100722.13
2022-08-10T09:10:40.141Z,100716.75
2022-08-10T09:13:33.779Z,100721.00
2022-08-10T09:14:50.231Z,100723.25
2022-08-10T09:16:10.967Z,100714.13
2022-08-10T09:17:38.192Z,100712.38
2022-08-10T09:19:10.720Z,100704.63
2022-08-10T09:20:39.620Z,100709.56
2022-08-10T09:21:58.791Z,100701.44
2022-08-10T09:24:04.517Z,100695.38
2022-08-10T09:25:20.739Z,100699.97
2022-08-10T09:26:37.780Z,100695.84
2022-08-10T09:27:49.333Z,100698.84
2022-08-10T09:29:11.522Z,100695.66
2022-08-10T09:30:33.778Z,100695.78
2022-08-10T09:31:55.528Z,100706.13
2022-08-10T09:36:23.508Z,100694.28
2022-08-10T09:36:23.686Z,100699.47
2022-08-10T09:36:44.392Z,100691.00
2022-08-10T09:38:19.767Z,100687.09
2022-08-10T09:40:56.505Z,100681.44
2022-08-10T09:41:39.813Z,100686.06
2022-08-10T09:43:23.537Z,100685.50
2022-08-10T09:44:33.511Z,100683.22
2022-08-10T09:45:59.101Z,100688.56
2022-08-10T09:47:01.331Z,100687.41
2022-08-10T09:48:32.862Z,100690.38
2022-08-10T09:50:04.478Z,100685.22
2022-08-10T09:53:05.671Z,100693.97
2022-08-10T09:54:21.485Z,100685.91
2022-08-10T09:56:17.027Z,100685.34
2022-08-10T09:57:55.100Z,100692.19
2022-08-10T09:59:26.613Z,100686.44
2022-08-10T10:00:52.918Z,100683.28
2022-08-10T10:02:27.623Z,100696.06
2022-08-10T10:03:35.962Z,100689.38
2022-08-10T10:05:02.455Z,100702.63
2022-08-10T10:06:11.122Z,100701.81
2022-08-10T10:07:28.775Z,100691.56
2022-08-10T10:08:42.934Z,100693.34
2022-08-10T10:10:00.188Z,100691.31
2022-08-10T10:11:24.125Z,100693.09
2022-08-10T10:12:36.247Z,100689.50
2022-08-10T10:14:02.475Z,100692.47
2022-08-10T10:15:24.153Z,100689.63
2022-08-10T10:16:52.625Z,100690.88
2022-08-10T10:18:04.208Z,100696.06
2022-08-10T10:19:34.371Z,100693.00
2022-08-10T10:21:03.297Z,100692.59
2022-08-10T10:22:32.832Z,100685.63
2022-08-10T10:24:19.800Z,100686.31
2022-08-10T10:25:51.334Z,100682.50
2022-08-10T10:27:36.768Z,100684.31
2022-08-10T10:29:37.627Z,100679.09
2022-08-10T10:30:39.406Z,100683.38
2022-08-10T10:31:58.644Z,100680.41
2022-08-10T10:33:13.203Z,100681.66
2022-08-10T10:34:38.264Z,100687.66
2022-08-10T10:35:55.658Z,100681.66
2022-08-10T10:37:00.105Z,100679.94
2022-08-10T10:38:04.771Z,100679.97
2022-08-10T10:39:08.134Z,100680.69
2022-08-10T10:40:14.731Z,100676.63
2022-08-10T10:41:56.200Z,100673.97
2022-08-10T10:43:15.833Z,100679.34
2022-08-10T10:44:23.255Z,100684.91
2022-08-10T10:45:49.929Z,100677.88
2022-08-10T10:47:07.106Z,100675.56
2022-08-10T10:48:24.110Z,100687.97
2022-08-10T10:49:42.907Z,100681.69
2022-08-10T10:51:11.280Z,100678.34
2022-08-10T10:52:13.261Z,100674.44
2022-08-10T10:53:49.871Z,100673.56
2022-08-10T10:55:09.649Z,100670.50
2022-08-10T10:56:21.258Z,100666.41
2022-08-10T10:57:59.179Z,100671.41
2022-08-10T10:59:54.895Z,100666.91
2022-08-10T11:00:57.147Z,100669.53
2022-08-10T11:02:36.752Z,100667.78
2022-08-10T11:03:44.964Z,100672.13
2022-08-10T11:05:02.649Z,100676.13
2022-08-10T11:06:40.561Z,100679.72
2022-08-10T11:07:53.492Z,100678.78
2022-08-10T11:09:05.999Z,100676.09
2022-08-10T11:10:32.911Z,100679.59
2022-08-10T11:12:01.978Z,100688.94
2022-08-10T11:14:26.652Z,100681.66
2022-08-10T11:15:09.766Z,100676.06
2022-08-10T11:16:35.839Z,100670.59
2022-08-10T11:18:16.112Z,100669.59
2022-08-10T11:20:02.386Z,100671.59
2022-08-10T11:21:06.979Z,100678.06
2022-08-10T11:22:20.482Z,100676.09
2022-08-10T11:23:31.885Z,100675.31
2022-08-10T11:24:49.561Z,100680.09
2022-08-10T11:25:59.859Z,100677.63
2022-08-10T11:27:22.169Z,100675.81
2022-08-10T11:28:46.009Z,100671.31
2022-08-10T11:30:06.706Z,100668.06
2022-08-10T11:31:25.189Z,100671.88
2022-08-10T11:32:43.350Z,100672.13
2022-08-10T11:34:48.296Z,100672.13
2022-08-10T11:35:45.202Z,100670.50
2022-08-10T11:36:55.836Z,100670.06
2022-08-10T11:38:31.398Z,100679.81
2022-08-10T11:39:49.410Z,100668.06
2022-08-10T11:42:10.244Z,100670.13
2022-08-10T11:42:53.705Z,100665.09
2022-08-10T11:44:19.249Z,100666.28
2022-08-10T11:45:29.980Z,100667.59
2022-08-10T11:46:34.941Z,100666.00
2022-08-10T11:47:39.916Z,100668.84
2022-08-10T11:48:57.052Z,100666.47
2022-08-10T11:50:16.344Z,100670.94
2022-08-10T11:51:25.349Z,100663.78
2022-08-10T11:52:51.452Z,100665.72
2022-08-10T11:54:13.350Z,100666.75
2022-08-10T11:55:23.934Z,100662.03
2022-08-10T11:56:33.669Z,100662.84
2022-08-10T11:57:53.870Z,100666.59
2022-08-10T11:59:17.478Z,100665.47
2022-08-10T12:00:24.319Z,100661.47
2022-08-10T12:01:32.950Z,100659.22
2022-08-10T12:02:53.386Z,100659.25
2022-08-10T12:03:56.565Z,100657.97
2022-08-10T12:05:08.459Z,100658.59
2022-08-10T12:06:14.233Z,100668.47
2022-08-10T12:10:04.950Z,100674.19
2022-08-10T12:10:05.509Z,100658.81
2022-08-10T12:10:13.797Z,100655.91
2022-08-10T12:11:24.540Z,100660.28
2022-08-10T12:12:34.407Z,100664.06
2022-08-10T12:14:04.612Z,100658.31
2022-08-10T12:15:21.671Z,100655.47
2022-08-10T12:16:28.676Z,100663.72
2022-08-10T12:18:01.153Z,100659.59
2022-08-10T12:19:08.993Z,100665.72
2022-08-10T12:20:12.659Z,100663.50
2022-08-10T12:21:27.535Z,100660.09
2022-08-10T12:22:49.578Z,100666.72
2022-08-10T12:24:03.107Z,100665.13
2022-08-10T12:25:11.747Z,100668.88
2022-08-10T12:26:37.878Z,100674.53
2022-08-10T12:27:50.978Z,100674.84
2022-08-10T12:29:12.178Z,100670.69
2022-08-10T12:30:22.282Z,100680.16
2022-08-10T12:31:54.759Z,100676.06
2022-08-10T12:33:02.588Z,100671.06
2022-08-10T12:34:30.624Z,100674.13
2022-08-10T12:35:56.210Z,100674.78
2022-08-10T12:37:17.824Z,100677.63
2022-08-10T12:38:27.596Z,100674.19
2022-08-10T12:39:37.730Z,100665.97
2022-08-10T12:40:47.445Z,100664.91
2022-08-10T12:42:10.991Z,100668.16
2022-08-10T12:44:04.727Z,100663.88
2022-08-10T12:45:05.829Z,100665.50
2022-08-10T12:46:39.189Z,100656.81
2022-08-10T12:48:04.381Z,100658.06
2022-08-10T12:49:21.030Z,100664.75
2022-08-10T12:50:33.990Z,100652.91
2022-08-10T12:51:41.467Z,100655.13
2022-08-10T12:53:06.989Z,100655.69
2022-08-10T12:54:17.331Z,100655.28
2022-08-10T12:55:37.622Z,100661.66
2022-08-10T12:56:56.126Z,100651.28
2022-08-10T12:58:00.172Z,100652.53
2022-08-10T12:59:05.698Z,100656.44
2022-08-10T13:00:09.918Z,100660.38
2022-08-10T13:01:24.721Z,100656.75
2022-08-10T13:02:30.972Z,100660.22
2022-08-10T13:04:22.712Z,100655.53
2022-08-10T13:05:02.662Z,100661.97
2022-08-10T13:06:09.527Z,100652.75
2022-08-10T13:08:24.677Z,100661.28
2022-08-10T13:08:56.131Z,100662.00
2022-08-10T13:10:09.995Z,100659.41
2022-08-10T13:12:33.746Z,100657.97
2022-08-10T13:12:44.332Z,100646.53
2022-08-10T13:13:49.400Z,100650.00
2022-08-10T13:15:43.168Z,100653.19
2022-08-10T13:16:39.284Z,100640.22
2022-08-10T13:17:42.706Z,100647.00
2022-08-10T13:18:46.566Z,100643.03
2022-08-10T13:19:55.056Z,100645.91
2022-08-10T13:21:19.568Z,100644.00
2022-08-10T13:22:25.839Z,100657.59
2022-08-10T13:23:30.208Z,100657.38
2022-08-10T13:24:35.950Z,100656.25
2022-08-10T13:25:46.624Z,100654.22
2022-08-10T13:27:24.792Z,100652.44
2022-08-10T13:28:36.431Z,100648.56
2022-08-10T13:29:50.601Z,100651.81
2022-08-10T13:30:54.819Z,100655.22
2022-08-10T13:32:10.001Z,100651.53
2022-08-10T13:33:17.323Z,100649.22
2022-08-10T13:34:46.455Z,100655.28
2022-08-10T13:35:49.743Z,100645.81
2022-08-10T13:37:09.316Z,100651.13
2022-08-10T13:38:17.216Z,100645.94
2022-08-10T13:39:24.620Z,100645.25
2022-08-10T13:40:27.886Z,100640.16
2022-08-10T13:41:36.020Z,100641.59
2022-08-10T13:42:40.081Z,100644.75
2022-08-10T13:43:54.882Z,100640.97
2022-08-10T13:44:59.659Z,100638.34
2022-08-10T13:46:02.871Z,100634.53
2022-08-10T13:47:07.149Z,100639.97
2022-08-10T13:48:18.799Z,100632.53
2022-08-10T13:49:24.208Z,100639.38
2022-08-10T13:50:35.705Z,100640.34
2022-08-10T13:51:54.468Z,100650.13
2022-08-10T13:53:01.565Z,100649.78
2022-08-10T13:54:05.843Z,100651.50
2022-08-10T13:55:17.282Z,100646.47
2022-08-10T13:56:21.669Z,100645.97
2022-08-10T13:57:27.792Z,100643.72
2022-08-10T13:58:36.166Z,100645.38
2022-08-10T14:00:33.947Z,100647.59
2022-08-10T14:01:33.002Z,100649.53
2022-08-10T14:02:40.927Z,100651.25